Time;durP1;ratioP1;P1;durP2;ratioP2;P2;SDS_P1;SDS_P2;PMS_P1;PMS_P2;Temp;Humidity;BMP_temperature;BMP_pressure;BME280_temperature;BME280_humidity;BME280_pressure;Samples;Min_cycle;Max_cycle;Signal;HPM_P1;HPM_P2
2023/10/20 00:00:59;;;;;;;7.10;4.88;;;13.20;99.90;;;12.82;100.00;94542.16;5017921;28;20665;-37
2023/10/20 00:03:25;;;;;;;6.32;4.40;;;13.20;99.90;;;12.80;100.00;94533.53;5008178;28;20029;-39
2023/10/20 00:05:50;;;;;;;8.55;4.95;;;13.20;99.90;;;12.76;100.00;94522.41;5020394;28;20520;-39
2023/10/20 00:08:16;;;;;;;5.55;4.78;;;13.20;99.90;;;12.77;100.00;94526.69;5014570;28;20496;-39
2023/10/20 00:10:42;;;;;;;4.97;3.97;;;13.20;99.90;;;12.81;100.00;94516.66;5017002;28;20083;-42
2023/10/20 00:13:09;;;;;;;4.43;3.85;;;13.20;99.90;;;12.82;100.00;94520.16;5010622;28;20270;-41
2023/10/20 00:15:35;;;;;;;5.68;3.97;;;13.20;99.90;;;12.79;100.00;94514.19;5012350;28;20447;-39
2023/10/20 00:18:02;;;;;;;5.45;4.45;;;13.30;99.90;;;12.83;100.00;94520.03;5019011;28;20410;-40
2023/10/20 00:20:28;;;;;;;6.78;4.68;;;13.20;99.90;;;12.74;100.00;94508.47;5017241;28;20042;-40
2023/10/20 00:22:55;;;;;;;4.97;4.40;;;13.20;99.90;;;12.87;100.00;94525.88;5017882;28;20040;-41
2023/10/20 00:25:21;;;;;;;6.00;4.25;;;13.30;99.90;;;12.83;100.00;94516.53;5016319;28;20554;-39
2023/10/20 00:27:47;;;;;;;5.07;4.35;;;13.30;99.90;;;12.88;100.00;94530.16;5018340;28;20037;-39
2023/10/20 00:30:14;;;;;;;4.38;3.53;;;13.30;99.90;;;12.92;100.00;94528.91;5016169;28;20030;-40
2023/10/20 00:32:40;;;;;;;7.15;4.22;;;13.30;99.90;;;12.88;100.00;94525.69;5018018;28;20356;-40
2023/10/20 00:35:09;;;;;;;4.28;3.88;;;13.30;99.90;;;12.83;100.00;94522.69;5012140;28;20603;-41
2023/10/20 00:37:36;;;;;;;5.25;3.95;;;13.30;99.90;;;12.88;100.00;94525.69;5014855;28;20043;-40
2023/10/20 00:40:09;;;;;;;4.93;3.67;;;13.30;99.90;;;12.89;100.00;94518.63;5021476;28;20457;-41
2023/10/20 00:42:35;;;;;;;4.28;3.60;;;13.30;99.90;;;12.90;100.00;94501.75;5001969;28;20052;-40
2023/10/20 00:45:01;;;;;;;5.97;4.40;;;13.30;99.90;;;12.78;100.00;94483.41;5017797;28;20115;-40
2023/10/20 00:47:27;;;;;;;7.70;3.78;;;13.30;99.90;;;12.85;100.00;94475.75;5008517;28;20576;-41
2023/10/20 00:49:54;;;;;;;7.20;3.47;;;13.30;99.90;;;12.88;100.00;94490.50;4997275;28;20052;-39
2023/10/20 00:52:21;;;;;;;4.03;2.95;;;13.30;99.90;;;12.89;100.00;94490.38;5012305;28;20033;-40
2023/10/20 00:54:47;;;;;;;5.38;3.60;;;13.30;99.90;;;12.87;100.00;94483.56;5019977;28;20555;-41
2023/10/20 00:57:16;;;;;;;4.68;3.38;;;13.30;99.90;;;12.87;100.00;94486.22;5005638;28;20374;-40
2023/10/20 00:59:43;;;;;;;4.88;3.90;;;13.30;99.90;;;12.87;100.00;94488.84;5016812;28;20069;-40
2023/10/20 01:02:09;;;;;;;5.03;3.95;;;13.30;99.90;;;12.80;100.00;94467.41;5010195;28;20485;-39
2023/10/20 01:04:35;;;;;;;5.60;3.40;;;13.30;99.90;;;12.83;100.00;94461.84;5013629;28;20098;-40
2023/10/20 01:07:00;;;;;;;4.32;3.20;;;13.30;99.90;;;12.89;100.00;94466.56;5018202;28;20456;-40
2023/10/20 01:09:27;;;;;;;4.38;2.90;;;13.30;99.90;;;12.92;100.00;94457.50;5010897;28;20790;-40
2023/10/20 01:11:53;;;;;;;3.25;2.95;;;13.30;99.90;;;12.92;100.00;94447.78;5019812;28;20056;-40
2023/10/20 01:14:20;;;;;;;5.97;4.05;;;13.30;99.90;;;12.89;100.00;94448.06;5012959;28;21104;-40
2023/10/20 01:16:47;;;;;;;5.07;3.47;;;13.30;99.90;;;12.86;100.00;94447.50;5020006;28;20497;-41
2023/10/20 01:19:13;;;;;;;4.60;3.40;;;13.30;99.90;;;12.78;100.00;94435.81;5012205;28;20108;-40
2023/10/20 01:21:39;;;;;;;4.65;3.20;;;13.30;99.90;;;12.79;100.00;94432.22;5019347;28;20049;-40
2023/10/20 01:24:05;;;;;;;5.50;3.30;;;13.30;99.90;;;12.86;100.00;94448.31;5015119;28;20172;-40
2023/10/20 01:26:34;;;;;;;4.45;2.60;;;13.30;99.90;;;12.86;100.00;94439.56;5014229;28;20029;-41
2023/10/20 01:29:00;;;;;;;3.47;2.67;;;13.20;99.90;;;12.84;100.00;94437.06;5018127;28;20058;-40
2023/10/20 01:31:26;;;;;;;2.92;2.58;;;13.20;99.90;;;12.85;100.00;94433.47;5012010;28;20148;-40
2023/10/20 01:33:52;;;;;;;3.92;3.00;;;13.20;99.90;;;12.76;100.00;94415.81;5018819;28;20111;-42
2023/10/20 01:36:18;;;;;;;3.22;2.80;;;13.20;99.90;;;12.84;100.00;94423.00;5012683;28;20119;-40
2023/10/20 01:38:44;;;;;;;5.22;3.00;;;13.20;99.90;;;12.86;100.00;94413.94;5011253;28;20037;-39
2023/10/20 01:41:10;;;;;;;5.82;2.85;;;13.20;99.90;;;12.87;100.00;94398.94;5013612;28;20438;-40
2023/10/20 01:43:36;;;;;;;2.88;2.50;;;13.20;99.90;;;12.86;100.00;94381.38;5009140;28;20037;-41
2023/10/20 01:46:03;;;;;;;3.72;2.72;;;13.20;99.90;;;12.86;100.00;94382.22;5012246;28;20037;-40
2023/10/20 01:48:30;;;;;;;4.63;2.70;;;13.20;99.90;;;12.80;100.00;94372.22;5009051;28;20057;-41
2023/10/20 01:50:56;;;;;;;3.17;2.38;;;13.20;99.90;;;12.84;100.00;94364.84;5017529;28;20025;-40
2023/10/20 01:53:22;;;;;;;4.30;2.72;;;13.20;99.90;;;12.80;100.00;94354.53;5009562;28;20112;-42
2023/10/20 01:55:51;;;;;;;5.20;2.80;;;13.20;99.90;;;12.79;100.00;94337.03;5019200;28;20029;-40
2023/10/20 01:58:18;;;;;;;3.92;2.75;;;13.20;99.90;;;12.78;100.00;94330.06;5013590;28;20032;-40
2023/10/20 02:00:48;;;;;;;3.35;2.65;;;13.20;99.90;;;12.77;100.00;94315.16;5018143;28;20113;-43
2023/10/20 02:03:13;;;;;;;2.83;2.40;;;13.20;99.90;;;12.77;100.00;94306.41;5010789;28;20104;-40
2023/10/20 02:05:39;;;;;;;2.97;2.58;;;13.10;99.90;;;12.77;100.00;94301.94;5011177;28;20025;-40
2023/10/20 02:08:08;;;;;;;4.68;2.70;;;13.20;99.90;;;12.75;100.00;94303.09;5012965;28;20123;-39
2023/10/20 02:10:35;;;;;;;3.40;2.90;;;13.10;99.90;;;12.72;100.00;94293.66;5011268;28;20541;-41
2023/10/20 02:13:01;;;;;;;4.05;2.88;;;13.10;99.90;;;12.73;100.00;94287.34;4993058;28;20025;-41
2023/10/20 02:15:26;;;;;;;5.22;2.95;;;13.10;99.90;;;12.75;100.00;94279.28;5006247;28;20064;-40
2023/10/20 02:17:52;;;;;;;3.05;2.70;;;13.10;99.90;;;12.74;100.00;94269.69;5013701;28;20029;-41
2023/10/20 02:20:22;;;;;;;6.13;2.55;;;13.10;99.90;;;12.74;100.00;94267.88;5012976;28;20041;-39
2023/10/20 02:22:52;;;;;;;2.88;2.58;;;13.10;99.90;;;12.73;100.00;94263.56;5011753;28;20043;-41
2023/10/20 02:25:19;;;;;;;5.03;2.72;;;13.10;99.90;;;12.70;100.00;94253.28;4990985;28;20065;-39
2023/10/20 02:27:47;;;;;;;4.63;3.10;;;13.10;99.90;;;12.70;100.00;94257.75;5014526;28;20037;-40
2023/10/20 02:30:14;;;;;;;4.80;3.00;;;13.10;99.90;;;12.70;100.00;94247.16;5011908;28;20036;-41
2023/10/20 02:32:41;;;;;;;3.42;2.60;;;13.10;99.90;;;12.69;100.00;94237.59;5007918;28;20377;-40
2023/10/20 02:35:11;;;;;;;3.03;2.80;;;13.10;99.90;;;12.68;100.00;94234.09;5016033;28;20343;-39
2023/10/20 02:37:36;;;;;;;4.72;3.10;;;13.10;99.90;;;12.62;100.00;94210.06;5015073;28;20187;-41
2023/10/20 02:40:06;;;;;;;4.75;2.80;;;13.10;99.90;;;12.69;100.00;94234.94;5009644;28;20100;-39
2023/10/20 02:42:32;;;;;;;4.22;3.22;;;13.10;99.90;;;12.68;100.00;94244.66;5008845;28;20053;-40
2023/10/20 02:44:58;;;;;;;4.40;3.60;;;13.10;99.90;;;12.70;100.00;94249.81;5013832;28;20033;-40
2023/10/20 02:47:24;;;;;;;6.07;3.50;;;13.10;99.90;;;12.70;100.00;94250.63;5011887;28;20033;-40
2023/10/20 02:49:56;;;;;;;4.72;4.05;;;13.10;99.90;;;12.70;100.00;94248.00;5010814;28;20100;-39
2023/10/20 02:52:23;;;;;;;4.80;4.07;;;13.10;99.90;;;12.70;100.00;94236.59;5013921;28;20048;-40
2023/10/20 02:54:56;;;;;;;4.30;3.88;;;13.10;99.90;;;12.71;100.00;94248.84;4974065;28;20033;-39
2023/10/20 02:57:22;;;;;;;4.43;3.95;;;13.10;99.90;;;12.69;100.00;94235.78;5013968;28;20044;-39
2023/10/20 02:59:51;;;;;;;6.00;4.00;;;13.10;99.90;;;12.74;100.00;94248.53;5010297;28;20689;-40
2023/10/20 03:02:22;;;;;;;6.28;4.20;;;13.10;99.90;;;12.72;100.00;94256.63;5009545;28;20127;-40
2023/10/20 03:04:54;;;;;;;4.65;3.67;;;13.10;99.90;;;12.73;100.00;94260.94;5008217;28;20140;-40
2023/10/20 03:07:24;;;;;;;5.68;3.60;;;13.10;99.90;;;12.71;100.00;94251.50;4996538;28;20545;-40
2023/10/20 03:09:55;;;;;;;4.75;3.85;;;13.10;99.90;;;12.69;100.00;94250.81;5009897;28;20037;-40
2023/10/20 03:12:20;;;;;;;7.28;4.22;;;13.10;99.90;;;12.66;100.00;94249.28;5010985;28;20040;-39
2023/10/20 03:14:46;;;;;;;6.70;5.10;;;13.10;99.90;;;12.65;100.00;94239.69;5000767;28;20037;-40
2023/10/20 03:17:12;;;;;;;8.73;4.45;;;13.00;99.90;;;12.62;100.00;94223.28;5008425;28;20068;-40
2023/10/20 03:19:43;;;;;;;6.57;4.20;;;13.10;99.90;;;12.65;100.00;94228.25;5016585;28;20108;-41
2023/10/20 03:22:09;;;;;;;4.97;3.65;;;13.00;99.90;;;12.64;100.00;94211.59;5020190;28;20551;-40
2023/10/20 03:24:36;;;;;;;4.32;3.70;;;13.00;99.90;;;12.65;100.00;94201.84;5009676;28;20038;-40
2023/10/20 03:27:02;;;;;;;6.40;3.58;;;13.00;99.90;;;12.64;100.00;94190.44;5015069;28;20037;-41
2023/10/20 03:29:28;;;;;;;4.35;3.08;;;13.10;99.90;;;12.66;100.00;94191.13;5009494;28;20376;-41
2023/10/20 03:31:53;;;;;;;5.90;3.45;;;13.00;99.90;;;12.67;100.00;94190.16;5014377;28;20065;-40
2023/10/20 03:34:19;;;;;;;8.07;3.65;;;13.10;99.90;;;12.66;100.00;94177.91;5010147;28;20037;-40
2023/10/20 03:36:46;;;;;;;4.60;2.90;;;13.10;99.90;;;12.66;100.00;94167.31;5016818;28;20041;-40
2023/10/20 03:39:32;;;;;;;6.55;3.38;;;13.10;99.90;;;12.67;100.00;94153.13;5013513;28;20049;-39
2023/10/20 03:41:58;;;;;;;5.68;3.60;;;13.10;99.90;;;12.65;100.00;94136.59;5016212;28;20044;-40
2023/10/20 03:44:24;;;;;;;4.72;3.50;;;13.10;99.90;;;12.69;100.00;94140.59;5017946;28;20028;-40
2023/10/20 03:46:51;;;;;;;5.30;3.13;;;13.10;99.90;;;12.68;100.00;94138.09;5016043;28;20029;-39
2023/10/20 03:49:18;;;;;;;9.50;3.38;;;13.10;99.90;;;12.54;100.00;94110.38;5012104;28;20041;-40
2023/10/20 03:51:49;;;;;;;4.78;3.50;;;13.10;99.90;;;12.65;100.00;94122.53;5015688;28;20039;-40
2023/10/20 03:54:17;;;;;;;5.05;3.00;;;13.10;99.90;;;12.67;100.00;94107.34;5011001;28;20033;-40
2023/10/20 03:56:43;;;;;;;4.95;3.35;;;13.10;99.90;;;12.66;100.00;94108.34;5010941;28;20057;-40
2023/10/20 03:59:10;;;;;;;5.57;3.17;;;13.00;99.90;;;12.65;100.00;94110.16;5020736;28;20029;-40
2023/10/20 04:01:35;;;;;;;5.00;3.13;;;13.00;99.90;;;12.64;100.00;94111.13;5009306;28;20029;-42
2023/10/20 04:04:01;;;;;;;3.95;3.42;;;13.00;99.90;;;12.63;100.00;94100.72;5015008;28;20033;-40
2023/10/20 04:06:27;;;;;;;7.68;3.92;;;13.00;99.90;;;12.59;100.00;94097.53;5006809;28;20405;-42
2023/10/20 04:08:53;;;;;;;5.38;3.65;;;13.00;99.90;;;12.52;100.00;94088.53;5015715;28;20362;-42
2023/10/20 04:11:19;;;;;;;6.18;4.15;;;13.00;99.90;;;12.54;100.00;94086.56;5015440;28;20062;-40
2023/10/20 04:13:44;;;;;;;5.63;3.88;;;12.90;99.90;;;12.50;100.00;94064.09;5013993;28;20076;-41
2023/10/20 04:16:12;;;;;;;7.22;4.28;;;12.90;99.90;;;12.55;100.00;94053.91;5011580;28;20026;-40
2023/10/20 04:18:39;;;;;;;5.20;4.28;;;12.90;99.90;;;12.54;100.00;94046.94;5013041;28;20033;-40
2023/10/20 04:21:05;;;;;;;9.23;4.95;;;12.90;99.90;;;12.51;100.00;94041.97;5015615;28;20489;-41
2023/10/20 04:23:31;;;;;;;10.60;6.18;;;12.90;99.90;;;12.49;100.00;94034.19;5012276;28;20037;-40
2023/10/20 04:25:57;;;;;;;8.10;5.70;;;12.90;99.90;;;12.50;100.00;94027.91;5010436;28;20040;-40
2023/10/20 04:28:42;;;;;;;7.97;5.55;;;12.90;99.90;;;12.50;100.00;94019.16;5012072;28;20112;-40
2023/10/20 04:58:01;;;;;;;7.50;3.70;;;12.80;99.90;;;12.37;100.00;93951.66;5010314;28;20324;-40
2023/10/20 05:07:58;;;;;;;6.80;3.72;;;12.70;99.90;;;12.12;100.00;93874.03;5019594;28;20037;-39
2023/10/20 05:10:24;;;;;;;7.07;3.72;;;12.80;99.90;;;12.29;100.00;93896.13;5013590;28;20112;-41
2023/10/20 05:12:51;;;;;;;6.88;3.80;;;12.70;99.90;;;12.18;100.00;93864.66;5009997;28;20576;-40
2023/10/20 05:15:18;;;;;;;5.57;3.83;;;12.70;99.90;;;12.19;100.00;93879.53;5016279;28;20716;-39
2023/10/20 05:17:46;;;;;;;5.90;3.83;;;12.70;99.90;;;12.21;100.00;93878.38;5013002;28;20033;-41
2023/10/20 05:20:13;;;;;;;4.90;3.33;;;12.70;99.90;;;12.13;100.00;93854.56;5015798;28;20044;-39
2023/10/20 05:22:40;;;;;;;8.15;4.43;;;12.60;99.90;;;12.16;100.00;93853.41;5018310;28;20437;-40
2023/10/20 05:25:11;;;;;;;7.05;4.50;;;12.60;99.90;;;12.15;100.00;93847.31;5013130;28;20422;-39
2023/10/20 05:28:15;;;;;;;6.53;4.53;;;12.60;99.90;;;12.10;100.00;93839.03;5020588;28;20072;-39
2023/10/20 05:30:45;;;;;;;5.82;4.22;;;12.60;99.90;;;12.13;100.00;93836.09;5011615;28;20394;-39
2023/10/20 05:33:11;;;;;;;5.53;4.18;;;12.60;99.90;;;12.16;100.00;93829.66;5012395;28;20084;-39
2023/10/20 05:35:38;;;;;;;7.95;4.97;;;12.60;99.90;;;12.15;100.00;93828.84;5014706;28;20083;-40
2023/10/20 05:38:03;;;;;;;7.28;4.57;;;12.60;99.90;;;12.17;100.00;93831.31;5020152;28;20029;-40
2023/10/20 05:40:29;;;;;;;7.57;4.97;;;12.60;99.90;;;12.14;100.00;93808.69;5017509;28;20037;-38
2023/10/20 05:42:55;;;;;;;6.97;4.57;;;12.60;99.90;;;12.22;100.00;93815.81;5017706;28;20493;-38
2023/10/20 05:45:21;;;;;;;7.38;5.07;;;12.60;99.90;;;12.21;100.00;93775.38;5008938;28;20082;-39
2023/10/20 05:47:47;;;;;;;11.75;5.15;;;12.60;99.90;;;12.23;100.00;93764.66;5012855;28;20037;-39
2023/10/20 05:50:13;;;;;;;5.97;4.60;;;12.70;99.90;;;12.23;100.00;93757.56;5018276;28;20108;-40
2023/10/20 05:52:39;;;;;;;8.82;4.95;;;12.70;99.90;;;12.22;100.00;93760.34;5015989;28;20036;-39
2023/10/20 05:55:06;;;;;;;10.35;6.10;;;12.60;99.90;;;12.18;100.00;93761.66;5020805;28;20573;-40
2023/10/20 05:57:32;;;;;;;10.70;5.82;;;12.60;99.90;;;12.18;100.00;93759.00;5014565;28;20362;-40
2023/10/20 05:59:59;;;;;;;7.60;5.13;;;12.60;99.90;;;12.17;100.00;93765.28;5019789;28;20049;-38
2023/10/20 06:02:25;;;;;;;7.15;4.65;;;12.60;99.90;;;12.17;100.00;93752.09;5014947;28;20120;-38
2023/10/20 06:04:51;;;;;;;6.75;4.90;;;12.60;99.90;;;12.12;100.00;93725.31;5014913;28;20084;-40
2023/10/20 06:07:17;;;;;;;8.68;4.50;;;12.60;99.90;;;12.13;100.00;93713.75;5017803;28;20033;-39
2023/10/20 06:09:43;;;;;;;5.20;4.40;;;12.60;99.90;;;12.13;100.00;93721.69;5017574;28;20036;-40
2023/10/20 06:12:10;;;;;;;7.68;4.88;;;12.60;99.90;;;12.12;100.00;93722.69;5016711;28;20025;-40
2023/10/20 06:14:36;;;;;;;7.60;5.90;;;12.50;99.90;;;12.07;100.00;93717.03;5018451;28;20025;-38
2023/10/20 06:17:03;;;;;;;11.88;7.40;;;12.50;99.90;;;12.03;100.00;93706.78;5014473;28;20527;-39
2023/10/20 06:19:31;;;;;;;9.63;7.28;;;12.50;99.90;;;11.81;100.00;93662.41;5019941;28;20095;-39
2023/10/20 06:21:57;;;;;;;9.18;7.40;;;12.50;99.90;;;11.99;100.00;93686.94;5011781;28;20505;-39
2023/10/20 06:24:23;;;;;;;12.40;7.43;;;12.40;99.90;;;11.94;100.00;93689.22;5010631;28;20125;-38
2023/10/20 06:26:48;;;;;;;11.48;8.40;;;12.40;99.90;;;11.91;100.00;93678.16;5011129;28;20269;-39
2023/10/20 06:31:55;;;;;;;15.82;8.70;;;12.30;99.90;;;11.83;100.00;93694.75;5000235;28;20041;-41
2023/10/20 06:34:24;;;;;;;12.43;8.68;;;12.30;99.90;;;11.78;100.00;93684.63;5017482;28;20041;-39
2023/10/20 06:36:59;;;;;;;14.32;8.77;;;12.30;99.90;;;11.82;100.00;93661.41;5013320;28;20124;-39
2023/10/20 06:39:26;;;;;;;12.55;8.95;;;12.30;99.90;;;11.83;100.00;93658.63;5017714;28;20213;-38
2023/10/20 06:41:52;;;;;;;12.77;9.52;;;12.30;99.90;;;11.83;100.00;93663.06;5013655;28;20040;-39
2023/10/20 06:44:18;;;;;;;14.30;9.00;;;12.30;99.90;;;11.77;100.00;93643.41;5016073;28;20025;-40
2023/10/20 06:46:44;;;;;;;12.00;8.70;;;12.30;99.90;;;11.84;100.00;93625.13;5015981;28;20025;-40
2023/10/20 06:49:10;;;;;;;12.13;7.40;;;12.30;99.90;;;11.85;100.00;93634.69;5017855;28;20028;-39
2023/10/20 06:51:37;;;;;;;14.02;9.30;;;12.30;99.90;;;11.82;100.00;93629.72;5010229;28;20151;-39
2023/10/20 06:54:02;;;;;;;11.27;8.05;;;12.30;99.90;;;11.82;100.00;93614.72;5013872;28;20312;-39
2023/10/20 06:56:28;;;;;;;10.80;7.88;;;12.30;99.90;;;11.97;100.00;93625.56;5011588;28;20026;-38
2023/10/20 06:58:54;;;;;;;13.45;8.07;;;12.40;99.90;;;12.01;100.00;93616.34;5019301;28;20037;-39
2023/10/20 07:01:20;;;;;;;8.95;7.43;;;12.50;99.90;;;12.09;100.00;93607.59;5014522;28;20537;-38
2023/10/20 07:03:46;;;;;;;11.02;7.88;;;12.50;99.90;;;12.13;100.00;93608.97;5016630;28;20220;-39
2023/10/20 07:06:12;;;;;;;13.20;8.00;;;12.60;99.90;;;12.15;100.00;93625.47;5014278;28;20029;-41
2023/10/20 07:08:38;;;;;;;10.10;8.27;;;12.60;99.90;;;12.19;100.00;93624.16;5013929;28;20040;-39
2023/10/20 07:11:04;;;;;;;11.18;7.85;;;12.60;99.90;;;12.25;100.00;93612.13;5016602;28;20029;-39
2023/10/20 07:13:33;;;;;;;9.55;7.60;;;12.70;99.90;;;12.33;100.00;93600.78;5015880;28;20031;-39
2023/10/20 07:15:59;;;;;;;11.75;7.55;;;12.70;99.90;;;12.29;100.00;93576.50;5008497;28;20032;-39
2023/10/20 07:18:25;;;;;;;10.80;7.82;;;12.80;99.90;;;12.44;100.00;93579.34;4999148;28;20029;-38
2023/10/20 07:20:52;;;;;;;11.02;6.97;;;12.90;99.90;;;12.52;100.00;93589.09;5014345;28;20040;-38
2023/10/20 07:23:18;;;;;;;10.57;7.07;;;12.90;99.90;;;12.55;100.00;93581.69;5013889;28;20033;-39
2023/10/20 07:25:43;;;;;;;9.98;7.47;;;13.00;99.90;;;12.64;100.00;93597.56;4993841;28;20041;-38
2023/10/20 07:28:09;;;;;;;8.32;6.50;;;13.00;99.90;;;12.68;100.00;93605.00;5013973;28;20573;-38
2023/10/20 07:30:35;;;;;;;10.50;7.35;;;13.10;99.90;;;12.72;100.00;93608.13;5015053;28;20071;-40
2023/10/20 07:33:03;;;;;;;11.95;7.30;;;13.10;99.90;;;12.71;100.00;93595.94;4990513;28;20661;-38
2023/10/20 07:35:29;;;;;;;8.10;6.43;;;13.10;99.90;;;12.77;100.00;93604.00;4987115;28;20030;-40
2023/10/20 07:37:55;;;;;;;8.68;6.60;;;13.20;99.90;;;12.83;100.00;93604.34;4999178;28;20171;-39
2023/10/20 07:40:26;;;;;;;8.90;6.63;;;13.20;99.90;;;12.91;100.00;93604.38;5010516;28;20021;-39
2023/10/20 07:42:51;;;;;;;9.45;7.50;;;13.30;99.90;;;12.98;100.00;93608.03;5005438;28;20468;-40
2023/10/20 07:45:18;;;;;;;8.85;6.43;;;13.40;99.90;;;12.92;100.00;93574.28;5007549;28;20032;-39
2023/10/20 07:47:43;;;;;;;9.95;7.70;;;13.40;99.90;;;13.03;100.00;93576.63;4993903;28;20053;-40
2023/10/20 07:50:09;;;;;;;9.82;6.78;;;13.50;99.90;;;13.14;100.00;93589.50;5006914;28;20141;-39
2023/10/20 07:52:35;;;;;;;9.20;7.15;;;13.50;99.90;;;13.23;100.00;93587.69;5015041;28;20025;-39
2023/10/20 07:55:02;;;;;;;8.70;7.15;;;13.60;99.90;;;13.31;100.00;93600.13;5008680;28;20278;-39
2023/10/20 07:57:28;;;;;;;10.70;8.38;;;13.70;99.90;;;13.34;100.00;93592.66;5004689;28;20029;-39
2023/10/20 07:59:54;;;;;;;11.75;8.02;;;13.80;99.90;;;13.47;100.00;93591.34;5008070;28;20084;-39
2023/10/20 08:02:20;;;;;;;8.25;6.57;;;13.80;99.90;;;13.51;100.00;93590.00;5001399;28;20042;-39
2023/10/20 08:04:45;;;;;;;9.18;7.10;;;13.90;99.90;;;13.49;100.00;93584.06;5013310;28;20036;-40
2023/10/20 08:07:11;;;;;;;10.38;7.10;;;13.90;99.90;;;13.49;100.00;93598.09;5010598;28;20433;-39
2023/10/20 08:09:38;;;;;;;10.93;7.68;;;13.90;99.90;;;13.51;100.00;93590.84;5011057;28;20640;-40
2023/10/20 08:12:04;;;;;;;8.02;6.07;;;14.00;99.90;;;13.61;100.00;93603.06;5008280;28;20115;-39
2023/10/20 08:14:30;;;;;;;10.30;6.53;;;14.00;99.90;;;13.67;100.00;93605.03;5013213;28;20040;-39
2023/10/20 08:16:56;;;;;;;8.95;6.63;;;14.00;99.90;;;13.71;100.00;93601.03;5010559;28;20041;-39
2023/10/20 08:19:22;;;;;;;7.03;5.90;;;14.10;99.90;;;13.70;100.00;93602.06;5005872;28;20033;-39
2023/10/20 08:21:47;;;;;;;8.10;6.30;;;14.10;99.90;;;13.72;100.00;93602.72;5010665;28;20033;-40
2023/10/20 08:24:14;;;;;;;9.98;7.68;;;14.10;99.90;;;13.65;100.00;93609.69;5015899;28;20148;-39
2023/10/20 08:26:39;;;;;;;8.20;6.82;;;14.10;99.90;;;13.74;100.00;93622.72;5008785;28;20487;-39
2023/10/20 08:29:12;;;;;;;8.18;6.32;;;14.10;99.90;;;13.73;100.00;93625.56;5015592;28;20029;-39
2023/10/20 08:31:39;;;;;;;15.23;8.65;;;14.20;99.90;;;13.79;100.00;93627.53;5017560;28;20033;-39
2023/10/20 08:34:05;;;;;;;9.95;7.22;;;14.20;99.90;;;13.84;100.00;93640.25;5015331;28;20452;-40
2023/10/20 08:36:31;;;;;;;10.05;7.45;;;14.20;99.90;;;13.78;100.00;93641.75;5012505;28;20025;-40
2023/10/20 08:39:01;;;;;;;12.95;8.93;;;14.20;99.90;;;13.81;100.00;93653.84;5009894;28;20112;-39
2023/10/20 08:41:27;;;;;;;13.02;8.13;;;14.20;99.90;;;13.89;100.00;93654.66;5011997;28;20464;-39
2023/10/20 08:43:56;;;;;;;9.88;7.95;;;14.30;99.90;;;14.00;100.00;93665.84;5015073;28;20545;-39
2023/10/20 08:46:24;;;;;;;9.90;7.25;;;14.40;99.90;;;14.07;100.00;93664.22;5015273;28;20032;-39
2023/10/20 08:48:50;;;;;;;12.15;8.48;;;14.50;99.90;;;14.26;100.00;93692.13;5006736;28;20033;-40
2023/10/20 08:51:17;;;;;;;14.48;10.15;;;14.60;99.90;;;14.33;100.00;93715.13;5016169;28;20104;-38
2023/10/20 08:53:44;;;;;;;11.73;7.88;;;14.80;99.90;;;14.47;100.00;93721.56;5011949;28;20095;-38
2023/10/20 08:56:11;;;;;;;11.07;8.15;;;14.90;99.90;;;14.68;100.00;93747.53;5013581;28;20466;-39
2023/10/20 08:58:38;;;;;;;11.15;8.52;;;15.00;99.90;;;14.66;100.00;93754.84;5017677;28;20040;-40
2023/10/20 09:01:07;;;;;;;11.05;8.10;;;15.10;99.90;;;14.74;100.00;93780.50;5012563;28;20033;-39
2023/10/20 09:03:42;;;;;;;12.20;7.65;;;15.10;99.90;;;14.75;100.00;93789.28;5012120;28;20042;-38
2023/10/20 09:06:14;;;;;;;13.95;8.88;;;15.10;99.90;;;14.71;100.00;93786.13;5006908;28;20041;-39
2023/10/20 09:08:40;;;;;;;11.52;8.15;;;15.10;99.90;;;14.72;100.00;93795.75;4991699;28;20029;-40
2023/10/20 09:11:11;;;;;;;13.25;8.38;;;15.10;99.90;;;14.77;100.00;93797.88;5013552;28;20092;-39
2023/10/20 09:13:39;;;;;;;10.68;9.05;;;15.10;99.90;;;14.87;100.00;93796.69;5006465;28;20042;-39
2023/10/20 09:16:10;;;;;;;12.38;8.55;;;15.30;99.90;;;14.95;100.00;93785.25;5008717;28;20083;-38
2023/10/20 09:18:51;;;;;;;8.73;7.30;;;15.30;99.90;;;15.01;100.00;93791.69;5008915;28;20687;-38
2023/10/20 09:21:24;;;;;;;9.90;6.20;;;15.30;99.90;;;14.98;100.00;93784.06;5014518;28;20394;-39
2023/10/20 09:24:09;;;;;;;;;;;15.40;99.90;;;15.10;100.00;93789.84;5011337;28;20500;-38
2023/10/20 09:26:37;;;;;;;8.93;6.65;;;15.40;99.90;;;15.09;100.00;93773.06;5010990;28;19963;-40
2023/10/20 09:29:05;;;;;;;10.68;8.15;;;15.40;99.90;;;15.02;100.00;93761.50;5010287;28;20079;-39
2023/10/20 09:31:32;;;;;;;9.63;7.63;;;15.40;99.90;;;14.87;100.00;93761.41;5009844;28;20129;-39
2023/10/20 09:33:58;;;;;;;8.27;6.57;;;15.30;99.90;;;14.93;100.00;93784.59;5012969;28;20123;-39
2023/10/20 09:36:25;;;;;;;7.88;6.40;;;15.30;99.90;;;14.86;100.00;93789.75;5007273;28;20033;-39
2023/10/20 09:38:56;;;;;;;8.82;6.63;;;15.20;99.90;;;14.82;100.00;93785.78;5014840;28;20025;-40
2023/10/20 09:41:24;;;;;;;7.93;5.88;;;15.20;99.90;;;14.84;100.00;93794.41;5009822;28;20220;-39
2023/10/20 09:43:53;;;;;;;11.68;6.95;;;15.20;99.90;;;14.98;100.00;93787.53;5015394;28;20033;-39
2023/10/20 09:46:53;;;;;;;10.93;7.28;;;15.30;99.90;;;15.26;100.00;93803.84;5007491;28;20034;-40
2023/10/20 09:49:21;;;;;;;8.20;6.95;;;15.60;99.90;;;15.55;100.00;93812.16;4991601;28;20540;-39
2023/10/20 09:51:49;;;;;;;9.00;6.82;;;15.90;99.90;;;15.75;100.00;93820.53;5012852;28;20482;-42
2023/10/20 09:54:19;;;;;;;9.45;7.28;;;16.10;99.90;;;15.78;100.00;93813.03;5014930;28;20244;-40
2023/10/20 09:56:46;;;;;;;8.00;6.15;;;16.20;99.90;;;15.91;100.00;93827.56;4994859;28;20032;-39
2023/10/20 09:59:25;;;;;;;8.32;6.53;;;16.30;99.90;;;16.07;100.00;93835.44;5014671;28;20045;-40
2023/10/20 10:01:55;;;;;;;10.55;6.70;;;16.40;99.90;;;16.21;100.00;93847.94;4998448;28;20025;-39
2023/10/20 10:04:33;;;;;;;12.85;6.78;;;16.60;99.90;;;16.28;100.00;93853.38;5003832;28;20037;-40
2023/10/20 10:07:03;;;;;;;9.65;6.55;;;16.60;99.90;;;16.32;100.00;93867.97;5015082;28;20033;-40
2023/10/20 10:09:48;;;;;;;8.60;6.00;;;16.70;99.90;;;16.33;100.00;93871.44;5014697;28;20103;-40
2023/10/20 10:12:19;;;;;;;6.47;5.25;;;16.70;99.90;;;16.24;100.00;93873.34;5009124;28;20171;-40
2023/10/20 10:15:07;;;;;;;7.22;5.30;;;16.60;99.90;;;16.22;100.00;93881.50;5012616;28;20404;-39
2023/10/20 10:17:51;;;;;;;6.45;5.22;;;16.60;99.90;;;16.19;100.00;93879.19;5008153;28;22692;-41
2023/10/20 10:20:25;;;;;;;7.40;5.63;;;16.60;99.90;;;16.31;100.00;93884.09;4996693;28;20628;-40
2023/10/20 10:23:04;;;;;;;8.80;5.32;;;16.60;99.90;;;16.46;100.00;93890.28;5013223;28;20064;-39
2023/10/20 10:25:39;;;;;;;5.40;4.40;;;16.80;99.90;;;16.60;100.00;93907.31;5007616;28;20045;-39
2023/10/20 10:28:24;;;;;;;5.72;4.20;;;17.00;99.90;;;16.66;100.00;93895.94;5012200;28;20484;-40
2023/10/20 10:30:52;;;;;;;9.50;4.95;;;17.10;99.90;;;16.75;100.00;93910.81;5011237;28;20565;-39
2023/10/20 10:33:22;;;;;;;5.28;4.07;;;17.20;99.90;;;16.88;100.00;93912.91;5005717;28;20037;-41
2023/10/20 10:35:49;;;;;;;5.05;3.70;;;17.30;99.90;;;17.02;100.00;93905.13;4995211;28;20037;-39
2023/10/20 10:38:21;;;;;;;5.78;3.30;;;17.40;99.90;;;17.06;100.00;93909.91;4997423;28;20064;-39
2023/10/20 10:40:49;;;;;;;;;;;17.70;99.90;;;17.18;100.00;93904.97;5013893;28;20587;-39
2023/10/20 10:43:19;;;;;;;3.40;3.00;;;17.80;99.90;;;17.25;100.00;93915.72;5011383;28;20027;-39
2023/10/20 10:45:52;;;;;;;5.13;2.90;;;17.60;99.90;;;17.22;100.00;93910.75;5015643;28;20080;-40
2023/10/20 10:48:18;;;;;;;3.78;2.47;;;17.60;99.90;;;17.17;100.00;93922.78;5014006;28;20034;-39
2023/10/20 10:50:46;;;;;;;3.05;2.25;;;17.60;99.90;;;17.15;100.00;93924.78;5015453;28;20132;-40
2023/10/20 10:53:14;;;;;;;3.47;2.55;;;17.60;99.90;;;17.14;100.00;93938.28;5016953;28;20535;-39